createdAt,value
2023-04-21T00:00:49.061Z,9.80
2023-04-21T00:03:19.712Z,9.57
2023-04-21T00:05:49.048Z,9.20
2023-04-21T00:08:19.075Z,10.50
2023-04-21T00:10:48.141Z,9.77
2023-04-21T00:13:16.945Z,9.10
2023-04-21T00:15:45.714Z,9.70
2023-04-21T00:18:16.219Z,9.90
2023-04-21T00:20:45.191Z,9.90
2023-04-21T00:23:13.895Z,10.10
2023-04-21T00:25:49.937Z,10.63
2023-04-21T00:28:26.715Z,10.00
2023-04-21T00:30:57.165Z,10.70
2023-04-21T00:33:25.914Z,9.63
2023-04-21T00:35:54.719Z,10.00
2023-04-21T00:38:23.571Z,9.87
2023-04-21T00:40:52.338Z,9.37
2023-04-21T00:43:21.057Z,9.40
2023-04-21T00:45:49.837Z,9.15
2023-04-21T00:48:18.754Z,9.40
2023-04-21T00:50:47.748Z,9.73
2023-04-21T00:53:17.420Z,10.07
2023-04-21T00:55:46.812Z,10.73
2023-04-21T00:58:15.594Z,11.03
2023-04-21T01:00:44.721Z,11.43
2023-04-21T01:03:13.832Z,11.73
2023-04-21T01:05:42.762Z,11.37
2023-04-21T01:08:13.280Z,12.87
2023-04-21T01:10:42.269Z,11.80
2023-04-21T01:13:10.977Z,12.17
2023-04-21T01:15:39.725Z,11.67
2023-04-21T01:18:08.468Z,11.83
2023-04-21T01:20:37.231Z,10.37
2023-04-21T01:23:05.954Z,11.60
2023-04-21T01:25:34.916Z,11.83
2023-04-21T01:28:04.218Z,10.87
2023-04-21T01:30:33.073Z,13.30
2023-04-21T01:33:01.932Z,12.93
2023-04-21T01:35:32.331Z,14.07
2023-04-21T01:38:01.596Z,13.57
2023-04-21T01:40:30.308Z,13.57
2023-04-21T01:42:59.618Z,13.47
2023-04-21T01:45:28.378Z,12.90
2023-04-21T01:47:57.103Z,12.57
2023-04-21T01:50:26.144Z,12.23
2023-04-21T01:52:54.981Z,12.43
2023-04-21T01:55:23.872Z,12.33
2023-04-21T01:57:52.546Z,12.97
2023-04-21T02:00:21.508Z,12.53
2023-04-21T02:02:50.378Z,12.50
2023-04-21T02:05:19.257Z,12.47
2023-04-21T02:07:47.935Z,12.27
2023-04-21T02:10:16.700Z,12.50
2023-04-21T02:12:45.463Z,12.17
2023-04-21T02:15:14.274Z,13.47
2023-04-21T02:17:45.112Z,12.60
2023-04-21T02:20:14.025Z,13.37
2023-04-21T02:22:42.750Z,13.27
2023-04-21T02:25:11.536Z,13.90
2023-04-21T02:27:40.405Z,13.87
2023-04-21T02:30:10.268Z,13.40
2023-04-21T02:32:39.393Z,13.07
2023-04-21T02:35:08.330Z,13.07
2023-04-21T02:37:37.051Z,12.63
2023-04-21T02:40:06.715Z,13.20
2023-04-21T02:42:35.385Z,13.50
2023-04-21T02:45:04.121Z,12.70
2023-04-21T02:47:32.865Z,12.43
2023-04-21T02:50:01.794Z,12.53
2023-04-21T02:52:30.635Z,11.80
2023-04-21T02:54:59.266Z,12.33
2023-04-21T02:57:28.005Z,11.83
2023-04-21T02:59:56.707Z,12.27
2023-04-21T03:02:25.905Z,10.90
2023-04-21T03:04:54.866Z,11.70
2023-04-21T03:07:23.528Z,11.17
2023-04-21T03:09:52.303Z,11.43
2023-04-21T03:12:23.594Z,11.20
2023-04-21T03:21:47.870Z,11.03
2023-04-21T03:24:16.613Z,11.43
2023-04-21T03:26:45.372Z,12.30
2023-04-21T03:29:14.020Z,11.93
2023-04-21T03:31:42.753Z,12.80
2023-04-21T03:34:11.545Z,12.20
2023-04-21T03:36:40.360Z,11.77
2023-04-21T03:39:19.667Z,12.87
2023-04-21T03:41:41.074Z,12.37
2023-04-21T03:44:09.911Z,11.60
2023-04-21T03:46:38.564Z,11.90
2023-04-21T03:49:07.381Z,11.60
2023-04-21T03:51:36.144Z,10.90
2023-04-21T03:54:05.205Z,10.97
2023-04-21T03:56:33.951Z,10.50
2023-04-21T03:59:02.643Z,10.20
2023-04-21T04:01:31.324Z,10.93
2023-04-21T04:04:02.952Z,10.33
2023-04-21T04:06:33.249Z,10.57
2023-04-21T04:09:03.774Z,15.60
2023-04-21T04:11:33.273Z,10.28
2023-04-21T04:14:02.896Z,10.40
2023-04-21T04:16:33.238Z,10.60
2023-04-21T04:19:02.279Z,10.40
2023-04-21T04:21:34.971Z,9.48
2023-04-21T04:24:06.845Z,9.80
2023-04-21T04:26:41.424Z,9.80
2023-04-21T04:29:14.100Z,15.70
2023-04-21T04:31:45.019Z,12.60
2023-04-21T04:34:13.616Z,10.25
2023-04-21T04:36:43.907Z,9.93
2023-04-21T04:39:12.671Z,9.55
2023-04-21T04:41:44.238Z,9.93
2023-04-21T04:44:12.905Z,9.53
2023-04-21T04:46:41.706Z,10.00
2023-04-21T04:49:10.531Z,9.33
2023-04-21T04:51:39.141Z,9.55
2023-04-21T04:54:07.899Z,9.83
2023-04-21T04:56:37.459Z,9.80
2023-04-21T04:59:07.617Z,11.22
2023-04-21T05:08:19.671Z,14.90
2023-04-21T05:10:49.796Z,14.68
2023-04-21T05:13:22.604Z,14.53
2023-04-21T05:16:14.857Z,15.25
2023-04-21T05:18:49.609Z,14.63
2023-04-21T05:21:33.045Z,15.53
2023-04-21T05:24:06.282Z,14.45
2023-04-21T05:26:37.389Z,14.87
2023-04-21T05:29:09.156Z,14.28
2023-04-21T05:31:39.521Z,11.85
2023-04-21T05:34:09.891Z,13.43
2023-04-21T05:36:44.426Z,11.38
2023-04-21T05:39:20.398Z,10.53
2023-04-21T05:41:49.314Z,9.70
2023-04-21T05:44:19.775Z,10.32
2023-04-21T05:46:50.360Z,9.68
2023-04-21T05:49:24.381Z,12.45
2023-04-21T05:51:54.790Z,10.63
2023-04-21T05:54:28.006Z,10.43
2023-04-21T05:57:07.388Z,10.05
2023-04-21T05:59:43.396Z,9.93
2023-04-21T06:02:19.868Z,10.35
2023-04-21T06:08:18.826Z,9.83
2023-04-21T06:10:47.651Z,8.65
2023-04-21T06:13:19.375Z,9.00
2023-04-21T06:15:57.025Z,10.35
2023-04-21T06:18:34.537Z,8.20
2023-04-21T06:21:04.826Z,9.93
2023-04-21T06:23:39.027Z,8.83
2023-04-21T06:26:12.003Z,9.30
2023-04-21T06:28:40.999Z,9.23
2023-04-21T06:31:20.024Z,8.98
2023-04-21T06:33:55.050Z,9.05
2023-04-21T06:36:26.760Z,8.73
2023-04-21T06:38:58.864Z,8.85
2023-04-21T06:41:29.294Z,9.43
2023-04-21T06:44:00.434Z,9.68
2023-04-21T06:46:39.629Z,9.08
2023-04-21T06:49:13.277Z,8.90
2023-04-21T06:51:44.971Z,9.13
2023-04-21T06:54:17.707Z,8.65
2023-04-21T06:56:53.147Z,9.25
2023-04-21T06:59:38.327Z,8.58
2023-04-21T07:02:10.064Z,8.73
2023-04-21T07:04:40.765Z,8.20
2023-04-21T07:07:15.599Z,7.78
2023-04-21T07:09:51.307Z,8.80
2023-04-21T07:12:46.951Z,8.98
2023-04-21T07:15:20.931Z,7.83
2023-04-21T07:17:52.876Z,6.92
2023-04-21T07:20:23.992Z,7.72
2023-04-21T07:22:57.303Z,7.50
2023-04-21T07:25:27.729Z,7.85
2023-04-21T07:28:00.386Z,7.40
2023-04-21T07:30:30.951Z,6.45
2023-04-21T07:33:02.881Z,7.30
2023-04-21T07:35:33.299Z,7.55
2023-04-21T07:38:03.731Z,6.97
2023-04-21T07:40:36.792Z,7.87
2023-04-21T07:45:47.197Z,8.65
2023-04-21T07:48:16.066Z,7.25
2023-04-21T07:50:45.688Z,6.85
2023-04-21T07:53:22.787Z,6.80
2023-04-21T08:02:12.398Z,6.50
2023-04-21T08:04:41.283Z,6.92
2023-04-21T08:07:10.522Z,7.33
2023-04-21T08:09:39.271Z,5.62
2023-04-21T08:12:08.045Z,5.90
2023-04-21T08:14:36.700Z,6.20
2023-04-21T08:17:05.437Z,6.08
2023-04-21T08:19:34.436Z,6.50
2023-04-21T08:22:03.110Z,5.90
2023-04-21T08:24:34.618Z,5.78
2023-04-21T08:27:03.445Z,6.22
2023-04-21T08:29:32.179Z,5.33
2023-04-21T08:32:00.982Z,4.80
2023-04-21T08:37:24.532Z,5.05
2023-04-21T08:39:54.430Z,4.67
2023-04-21T08:42:23.296Z,5.90
2023-04-21T08:44:51.980Z,5.55
2023-04-21T08:47:23.175Z,4.67
2023-04-21T08:49:54.334Z,5.45
2023-04-21T08:52:23.447Z,5.60
2023-04-21T08:54:53.282Z,4.87
2023-04-21T08:57:22.133Z,4.87
2023-04-21T08:59:50.982Z,5.75
2023-04-21T09:02:21.315Z,5.83
2023-04-21T09:04:52.449Z,5.78
2023-04-21T09:07:43.707Z,5.62
2023-04-21T09:10:18.878Z,5.28
2023-04-21T09:12:50.045Z,5.35
2023-04-21T09:15:24.031Z,4.87
2023-04-21T09:17:57.258Z,4.58
2023-04-21T09:20:29.966Z,5.22
2023-04-21T09:23:06.646Z,4.50
2023-04-21T09:25:35.656Z,4.10
2023-04-21T09:28:04.913Z,4.80
2023-04-21T09:30:36.949Z,4.60
2023-04-21T09:33:16.675Z,4.17
2023-04-21T09:41:48.260Z,3.67
2023-04-21T09:44:18.510Z,4.25
2023-04-21T09:46:50.832Z,3.83
2023-04-21T09:49:21.462Z,4.53
2023-04-21T09:52:17.056Z,4.87
2023-04-21T09:56:57.792Z,4.67
2023-04-21T09:59:31.875Z,3.83
2023-04-21T10:02:02.410Z,4.90
2023-04-21T10:04:37.222Z,4.95
2023-04-21T10:07:07.014Z,3.60
2023-04-21T10:09:44.931Z,4.47
2023-04-21T10:12:16.388Z,4.55
2023-04-21T10:14:45.226Z,5.47
2023-04-21T10:17:17.748Z,5.17
2023-04-21T10:19:57.716Z,5.05
2023-04-21T10:22:31.646Z,4.80
2023-04-21T10:25:03.787Z,4.80
2023-04-21T10:27:35.656Z,5.33
2023-04-21T10:30:22.823Z,4.42
2023-04-21T10:33:05.995Z,5.47
2023-04-21T10:36:01.257Z,4.85
2023-04-21T10:38:44.056Z,5.87
2023-04-21T10:41:29.588Z,5.55
2023-04-21T10:44:14.916Z,5.42
2023-04-21T10:46:48.797Z,4.87
2023-04-21T10:49:31.524Z,4.62
2023-04-21T10:52:04.818Z,4.28
2023-04-21T10:55:00.325Z,4.25
2023-04-21T10:57:32.091Z,3.72
2023-04-21T11:00:01.100Z,3.70
2023-04-21T11:02:31.633Z,3.40
2023-04-21T11:05:01.906Z,3.90
2023-04-21T11:07:32.351Z,3.33
2023-04-21T11:10:11.540Z,3.92
2023-04-21T11:12:41.800Z,4.30
2023-04-21T11:22:01.573Z,5.67
2023-04-21T11:48:17.235Z,3.95
2023-04-21T11:57:29.079Z,3.25
2023-04-21T12:00:12.032Z,3.42
2023-04-21T12:02:41.470Z,3.00
2023-04-21T12:05:12.901Z,2.15
2023-04-21T12:07:48.970Z,2.10
2023-04-21T12:10:22.048Z,1.90
2023-04-21T12:13:04.406Z,2.10
2023-04-21T12:15:33.096Z,2.37
2023-04-21T12:18:10.710Z,2.22
2023-04-21T12:20:44.146Z,2.47
2023-04-21T12:23:13.022Z,2.80
2023-04-21T12:25:45.482Z,2.72
2023-04-21T12:28:18.242Z,3.27
2023-04-21T12:30:48.307Z,3.55
2023-04-21T12:33:18.300Z,3.42
2023-04-21T12:35:47.233Z,3.70
2023-04-21T12:38:16.542Z,4.08
2023-04-21T12:40:45.290Z,4.03
2023-04-21T12:43:13.970Z,4.10
2023-04-21T12:45:42.781Z,4.22
2023-04-21T12:48:12.442Z,4.45
2023-04-21T12:50:41.360Z,3.90
2023-04-21T12:53:10.204Z,4.22
2023-04-21T12:55:39.168Z,4.15
2023-04-21T12:58:08.664Z,5.10
2023-04-21T13:00:37.672Z,4.72
2023-04-21T13:03:06.840Z,3.90
2023-04-21T13:05:35.898Z,3.87
2023-04-21T13:08:04.615Z,4.20
2023-04-21T13:10:33.356Z,4.58
2023-04-21T13:13:02.071Z,4.35
2023-04-21T13:15:30.808Z,3.77
2023-04-21T13:18:00.204Z,3.80
2023-04-21T13:20:28.924Z,4.00
2023-04-21T13:23:00.317Z,3.87
2023-04-21T13:25:29.055Z,3.47
2023-04-21T13:27:58.185Z,4.85
2023-04-21T13:30:26.946Z,4.20
2023-04-21T13:32:56.072Z,4.10
2023-04-21T13:35:24.898Z,4.00
2023-04-21T13:37:57.425Z,4.05
2023-04-21T13:40:26.140Z,3.98
2023-04-21T13:42:54.853Z,4.28
2023-04-21T13:45:24.454Z,4.40
2023-04-21T13:47:54.221Z,4.70
2023-04-21T13:50:23.356Z,4.28
2023-04-21T13:52:52.914Z,4.40
2023-04-21T13:55:23.771Z,4.90
2023-04-21T13:57:58.702Z,4.83
2023-04-21T14:00:27.764Z,4.55
2023-04-21T14:03:09.794Z,5.40
2023-04-21T14:05:39.361Z,4.67
2023-04-21T14:08:10.077Z,5.42
2023-04-21T14:10:38.985Z,4.85
2023-04-21T14:13:07.585Z,4.97
2023-04-21T14:15:39.227Z,5.15
2023-04-21T14:18:08.467Z,5.10
2023-04-21T14:20:38.767Z,5.00
2023-04-21T14:23:10.754Z,4.60
2023-04-21T14:25:39.620Z,4.60
2023-04-21T14:28:12.941Z,4.97
2023-04-21T14:30:43.478Z,5.08
2023-04-21T14:33:39.588Z,5.40
2023-04-21T14:35:42.878Z,4.60
2023-04-21T14:38:11.692Z,4.83
2023-04-21T14:40:40.506Z,5.12
2023-04-21T14:43:14.880Z,4.97
2023-04-21T14:45:43.786Z,4.60
2023-04-21T14:48:14.510Z,4.85
2023-04-21T14:50:43.405Z,5.35
2023-04-21T14:53:13.938Z,5.47
2023-04-21T14:55:50.376Z,8.70
2023-04-21T14:58:19.360Z,4.22
2023-04-21T15:00:48.205Z,4.72
2023-04-21T15:03:17.187Z,5.28
2023-04-21T15:05:46.236Z,4.35
2023-04-21T15:08:16.636Z,4.72
2023-04-21T15:10:49.137Z,4.53
2023-04-21T15:13:17.939Z,4.65
2023-04-21T15:15:46.967Z,4.35
2023-04-21T15:18:21.209Z,5.03
2023-04-21T15:20:50.184Z,4.90
2023-04-21T15:23:18.976Z,5.80
2023-04-21T15:25:48.136Z,5.12
2023-04-21T15:28:19.634Z,4.45
2023-04-21T15:30:50.058Z,4.45
2023-04-21T15:33:20.567Z,4.55
2023-04-21T15:36:02.258Z,4.22
2023-04-21T15:38:32.765Z,4.35
2023-04-21T15:41:01.815Z,4.60
2023-04-21T15:43:33.359Z,4.45
2023-04-21T15:46:02.121Z,4.40
2023-04-21T15:48:34.138Z,5.00
2023-04-21T15:51:05.322Z,4.92
2023-04-21T15:53:43.481Z,3.37
2023-04-21T15:56:18.309Z,3.40
2023-04-21T15:58:47.062Z,4.08
2023-04-21T16:01:17.648Z,3.42
2023-04-21T16:03:49.190Z,4.05
2023-04-21T16:06:27.393Z,4.53
2023-04-21T16:08:59.707Z,4.03
2023-04-21T16:11:31.456Z,4.08
2023-04-21T16:14:00.468Z,3.20
2023-04-21T16:16:29.383Z,3.33
2023-04-21T16:18:58.230Z,3.30
2023-04-21T16:21:27.983Z,2.52
2023-04-21T16:23:57.111Z,3.90
2023-04-21T16:26:28.667Z,3.55
2023-04-21T16:28:57.489Z,3.80
2023-04-21T16:31:26.411Z,3.15
2023-04-21T16:34:02.045Z,3.47
2023-04-21T16:36:32.562Z,3.02
2023-04-21T16:39:01.504Z,3.67
2023-04-21T16:41:30.748Z,3.30
2023-04-21T16:43:59.630Z,3.50
2023-04-21T16:46:32.644Z,3.62
2023-04-21T16:49:01.711Z,3.27
2023-04-21T16:51:31.311Z,4.95
2023-04-21T16:54:04.497Z,4.50
2023-04-21T16:56:33.262Z,3.50
2023-04-21T16:59:07.011Z,3.37
2023-04-21T17:01:37.022Z,3.67
2023-04-21T17:04:13.513Z,3.87
2023-04-21T17:06:42.484Z,3.98
2023-04-21T17:09:17.943Z,5.15
2023-04-21T17:11:51.820Z,3.92
2023-04-21T17:14:23.882Z,6.15
2023-04-21T17:16:54.654Z,6.78
2023-04-21T17:19:26.990Z,4.60
2023-04-21T17:21:55.951Z,5.67
2023-04-21T17:24:25.126Z,6.35
2023-04-21T17:26:53.920Z,5.55
2023-04-21T17:29:22.750Z,5.00
2023-04-21T17:31:51.557Z,5.62
2023-04-21T17:34:24.768Z,5.33
2023-04-21T17:36:55.334Z,6.70
2023-04-21T17:39:26.520Z,5.20
2023-04-21T17:42:03.265Z,5.80
2023-04-21T17:44:34.983Z,6.42
2023-04-21T17:47:10.353Z,6.58
2023-04-21T17:49:39.495Z,5.72
2023-04-21T17:52:08.353Z,6.25
2023-04-21T17:54:38.784Z,6.42
2023-04-21T18:01:27.425Z,7.12
2023-04-21T18:04:01.006Z,7.87
2023-04-21T18:06:29.390Z,7.55
2023-04-21T18:09:00.908Z,6.80
2023-04-21T18:11:32.499Z,7.47
2023-04-21T18:14:01.425Z,8.03
2023-04-21T18:16:30.414Z,7.85
2023-04-21T18:19:03.131Z,7.87
2023-04-21T18:21:39.290Z,8.80
2023-04-21T18:24:08.129Z,9.30
2023-04-21T18:26:37.082Z,8.83
2023-04-21T18:29:09.943Z,8.60
2023-04-21T18:31:46.329Z,10.38
2023-04-21T18:34:15.242Z,9.70
2023-04-21T18:36:45.651Z,13.05
2023-04-21T18:39:16.694Z,12.07
2023-04-21T18:41:47.048Z,11.10
2023-04-21T18:44:23.228Z,11.08
2023-04-21T18:46:52.192Z,9.63
2023-04-21T18:49:25.982Z,9.93
2023-04-21T18:51:57.343Z,8.90
2023-04-21T18:54:25.483Z,8.48
2023-04-21T18:56:57.922Z,6.95
2023-04-21T18:59:26.919Z,8.15
2023-04-21T19:01:57.914Z,7.28
2023-04-21T19:04:27.240Z,7.70
2023-04-21T19:06:57.821Z,7.87
2023-04-21T19:09:28.341Z,8.28
2023-04-21T19:11:57.500Z,6.78
2023-04-21T19:14:39.599Z,9.05
2023-04-21T19:17:00.733Z,7.35
2023-04-21T19:19:29.801Z,6.65
2023-04-21T19:22:03.844Z,7.50
2023-04-21T19:24:39.935Z,6.83
2023-04-21T19:27:09.261Z,7.83
2023-04-21T19:29:44.188Z,7.33
2023-04-21T19:32:19.960Z,11.70
2023-04-21T19:34:56.936Z,13.10
2023-04-21T19:37:28.527Z,6.05
2023-04-21T19:40:06.435Z,7.42
2023-04-21T19:42:35.238Z,8.68
2023-04-21T19:45:04.002Z,8.20
2023-04-21T19:47:34.455Z,6.75
2023-04-21T19:50:14.412Z,7.40
2023-04-21T19:52:42.650Z,7.08
2023-04-21T19:55:11.464Z,7.67
2023-04-21T19:57:40.147Z,6.35
2023-04-21T20:00:11.339Z,5.97
2023-04-21T20:02:40.735Z,5.80
2023-04-21T20:05:12.865Z,7.60
2023-04-21T20:07:45.100Z,6.87
2023-04-21T20:10:13.883Z,6.75
2023-04-21T20:12:42.542Z,5.93
2023-04-21T20:15:13.003Z,5.60
2023-04-21T20:17:42.083Z,5.75
2023-04-21T20:20:11.880Z,5.90
2023-04-21T20:22:40.717Z,6.92
2023-04-21T20:25:11.223Z,8.35
2023-04-21T20:27:43.025Z,8.35
2023-04-21T20:30:13.496Z,8.60
2023-04-21T20:32:42.194Z,9.50
2023-04-21T20:35:16.918Z,9.58
2023-04-21T20:37:45.943Z,8.40
2023-04-21T20:40:14.843Z,9.05
2023-04-21T20:46:12.709Z,9.95
2023-04-21T20:48:41.380Z,8.40
2023-04-21T20:51:10.120Z,8.18
2023-04-21T20:53:38.806Z,9.23
2023-04-21T20:56:07.609Z,7.30
2023-04-21T20:58:36.795Z,6.87
2023-04-21T21:01:05.836Z,6.22
2023-04-21T21:03:34.570Z,8.18
2023-04-21T21:06:03.556Z,7.97
2023-04-21T21:08:32.430Z,8.73
2023-04-21T21:11:01.163Z,8.13
2023-04-21T21:13:30.021Z,9.58
2023-04-21T21:15:58.669Z,9.03
2023-04-21T21:18:27.950Z,11.43
2023-04-21T21:21:02.632Z,8.23
2023-04-21T21:23:35.856Z,9.13
2023-04-21T21:26:04.732Z,11.05
2023-04-21T21:28:35.572Z,9.23
2023-04-21T21:31:04.099Z,13.30
2023-04-21T21:33:34.231Z,11.95
2023-04-21T21:36:02.963Z,11.68
2023-04-21T21:38:31.686Z,9.50
2023-04-21T21:41:03.252Z,7.80
2023-04-21T21:43:33.229Z,7.30
2023-04-21T21:46:01.999Z,8.60
2023-04-21T21:48:30.744Z,8.13
2023-04-21T21:50:59.401Z,9.47
2023-04-21T21:53:30.020Z,9.07
2023-04-21T21:55:58.808Z,8.30
2023-04-21T21:58:28.128Z,7.62
2023-04-21T22:00:56.917Z,8.47
2023-04-21T22:03:26.425Z,8.70
2023-04-21T22:06:02.859Z,8.37
2023-04-21T22:08:34.595Z,8.27
2023-04-21T22:11:07.508Z,9.13
2023-04-21T22:13:36.448Z,8.90
2023-04-21T22:16:05.969Z,11.63
2023-04-21T22:18:34.907Z,12.07
2023-04-21T22:21:04.289Z,11.93
2023-04-21T22:23:33.266Z,12.17
2023-04-21T22:26:02.153Z,12.13
2023-04-21T22:28:30.996Z,11.63
2023-04-21T22:30:59.807Z,10.63
2023-04-21T22:33:28.561Z,10.40
2023-04-21T22:35:59.426Z,10.40
2023-04-21T22:38:28.349Z,10.53
2023-04-21T22:40:57.248Z,11.27
2023-04-21T22:43:26.107Z,11.97
2023-04-21T22:45:56.099Z,9.80
2023-04-21T22:48:26.470Z,9.73
2023-04-21T22:50:55.725Z,10.13
2023-04-21T22:53:27.735Z,10.00
2023-04-21T22:55:56.497Z,10.70
2023-04-21T22:58:26.543Z,11.00
2023-04-21T23:00:55.420Z,11.43
2023-04-21T23:03:24.759Z,10.70
2023-04-21T23:05:54.969Z,11.97
2023-04-21T23:08:23.768Z,12.00
2023-04-21T23:10:52.995Z,12.10
2023-04-21T23:13:21.762Z,11.97
2023-04-21T23:15:50.588Z,11.10
2023-04-21T23:18:19.307Z,10.47
2023-04-21T23:20:51.218Z,10.57
2023-04-21T23:23:20.179Z,10.53
2023-04-21T23:25:48.791Z,10.47
2023-04-21T23:28:17.577Z,10.17
2023-04-21T23:30:46.347Z,10.10
2023-04-21T23:33:15.219Z,9.67
2023-04-21T23:35:44.168Z,9.63
2023-04-21T23:38:12.900Z,10.83
2023-04-21T23:40:44.602Z,10.03
2023-04-21T23:43:13.268Z,10.63
2023-04-21T23:45:42.044Z,10.13
2023-04-21T23:48:11.776Z,9.67
2023-04-21T23:50:42.056Z,10.10
2023-04-21T23:53:10.806Z,10.67
2023-04-21T23:55:39.651Z,10.10
2023-04-21T23:58:08.376Z,10.60
